• Join FlightAware (Why Join?)
  • Login
  • US Flag GB Flag 
02:10 EDT


 

Airport Tracker/Info


-or-


 

Live Flight TrackerFlight Track Log ✈ N487VC ✈ 22-Apr-2013 ✈ KFRG - KMHT

Flight Track Log - Related Links

Times and Time Zones

All times are in EDT time to prevent confusion due to time zone crossing. See the N487VC flight status page for this flight to view local times or setup timezone preferences in your user account.

Time Position Orientation Groundspeed Altitude Reporting Facility
EDT Latitude Longitude Course Direction KTS MPH feet Rate Location/Type
14:36 40.8000 -73.4167 33° Northeast 149 171 3,700  Level New York TRACON
14:37 40.8333 -73.4333 339° North 163 188 6,000 1,860 Climbing New York TRACON
14:39 40.9064 -73.3792 29° Northeast 185 213 9,000 1,680 Climbing Boston Center
14:40 40.9567 -73.3525 22° Northeast 185 213 10,800 1,440 Climbing Boston Center
14:41 41.0111 -73.3258 20° North 196 226 11,900 600 Climbing Boston Center
14:42 41.0240 -73.1580 33° Northeast  Level Estimated
14:42 41.0781 -73.2936 20° North 221 254 12,000  Level Boston Center
14:43 41.1469 -73.2589 21° North 250 288 12,000  Level Boston Center
14:44 41.2203 -73.2211 21° North 263 303 12,000 120 Level Boston Center
14:45 41.2831 -73.1914 20° North 274 315 12,300 1,320 Climbing Boston Center
14:47 41.3981 -73.1153 26° Northeast 215 247 16,000 1,500 Climbing Boston Center
14:48 41.4567 -73.0717 29° Northeast 215 247 16,900 420 Climbing Boston Center
14:49 41.5194 -73.0417 20° North 244 281 16,900  Level Boston Center
14:50 41.5986 -72.9953 24° Northeast 273 314 17,000  Climbing Boston Center
14:51 41.6636 -72.9569 24° Northeast 280 322 17,000  Level Boston Center
14:52 41.7450 -72.9131 22° Northeast 280 322 17,000  Level Boston Center
14:53 41.8161 -72.8719 23° Northeast 275 316 17,000  Level Boston Center
14:54 41.8892 -72.8278 24° Northeast 275 316 17,000  Level Boston Center
14:55 41.9600 -72.7864 23° Northeast 275 316 17,000  Level Boston Center
14:56 42.0353 -72.7419 24° Northeast 275 316 17,000 -360 Level Boston Center
14:57 42.1019 -72.7031 23° Northeast 275 316 16,300 -960 Descending Boston Center
14:58 42.1792 -72.6586 23° Northeast 288 331 15,100 -720 Descending Boston Center
14:59 42.2586 -72.6111 24° Northeast 288 331 14,900 -60 Descending Boston Center
15:00 42.3233 -72.5719 24° Northeast 288 331 15,000  Climbing Boston Center
15:01 42.3942 -72.5300 24° Northeast 282 325 15,000 -60 Level Boston Center
15:02 42.4503 -72.4597 43° Northeast 270 311 14,900 -60 Descending Boston Center
15:03 42.5006 -72.3839 48° Northeast 265 305 14,900 -240 Level Boston Center
15:04 42.5544 -72.3075 46° Northeast 265 305 14,500 -900 Descending Boston Center
15:05 42.6147 -72.2228 46° Northeast 272 313 13,100 -1,500 Descending Boston Center
15:06 42.6708 -72.1436 46° Northeast 288 331 11,600 -1,440 Descending Boston Center
15:07 42.7250 -72.0614 48° Northeast 288 331 10,300 -1,440 Descending Boston Center
15:08 42.7789 -71.9875 45° Northeast 288 331 8,800 -1,380 Descending Boston Center
15:09 42.8283 -71.9022 52° Northeast 283 326 7,600 -1,320 Descending Boston Center
15:10 42.8322 -71.8058 87° East 250 288 6,200 -1,440 Descending Boston Center
15:11 42.8317 -71.7153 90° East 245 282 4,800 -1,440 Descending Boston Center
15:12 42.8436 -71.6358 78° East 218 251 3,400 -1,380 Descending Boston Center
15:13 42.8681 -71.5675 64° Northeast 199 229 2,100 -900 Descending Boston Center
15:14 42.8844 -71.5136 67° East 167 192 1,700 -660 Descending Boston Center
15:15 42.9089 -71.4733 50° Northeast 139 160 800 6,600 Descending Boston Center
15:16 42.9275 -71.4419 51° Northeast 122 140 15,000 7,080 Climbing Boston Center
15:17 42.9481 -71.4075 51° Northeast 122 140 15,000  Level Boston Center
15:18 42.9686 -71.3703 53° Northeast 122 140 15,000  Level Boston Center
15:19 42.9889 -71.3361 51° Northeast 122 140 15,000  Level Boston Center
15:21 42.9328 -71.4358 316° Northwest  Level Estimated
15:28 42.9328 -71.4358 316° Northwest  Level Estimated
15:29 42.9328 -71.4358 316° Northwest  Level Estimated
15:30 42.9328 -71.4358 316° Northwest  Level Estimated
15:31 42.9328 -71.4358 316° Northwest  Level Estimated
15:32 42.9328 -71.4358 316° Northwest  Level Estimated
15:33 42.9328 -71.4358 316° Northwest  Level Estimated
15:34 42.9328 -71.4358 316° Northwest  Level Estimated